Time;durP1;ratioP1;P1;durP2;ratioP2;P2;SDS_P1;SDS_P2;PMS_P1;PMS_P2;Temp;Humidity;BMP_temperature;BMP_pressure;BME280_temperature;BME280_humidity;BME280_pressure;Samples;Min_cycle;Max_cycle;Signal;HPM_P1;HPM_P2
2021/07/27 00:01:47;;;;;;;5.90;5.40;;;22.30;99.90;;;;;;4919922;29;20469;-74
2021/07/27 00:04:14;;;;;;;5.97;5.47;;;22.20;99.90;;;;;;4919401;29;20480;-73
2021/07/27 00:06:42;;;;;;;6.20;5.60;;;22.10;99.90;;;;;;4919313;29;20468;-73
2021/07/27 00:09:09;;;;;;;7.27;5.77;;;22.10;99.90;;;;;;4919589;29;20465;-74
2021/07/27 00:11:36;;;;;;;6.13;5.53;;;22.00;99.90;;;;;;4919178;29;20473;-72
2021/07/27 00:14:06;;;;;;;5.83;5.30;;;22.00;99.90;;;;;;4919557;29;20898;-73
2021/07/27 00:16:33;;;;;;;7.43;5.47;;;22.00;99.90;;;;;;4919478;29;20473;-73
2021/07/27 00:19:00;;;;;;;7.77;5.83;;;22.00;99.90;;;;;;4919243;29;20579;-73
2021/07/27 00:21:26;;;;;;;10.67;5.60;;;21.90;99.90;;;;;;4919215;29;20798;-73
2021/07/27 00:23:55;;;;;;;9.53;5.73;;;21.90;99.90;;;;;;4919353;29;20785;-73
2021/07/27 00:26:24;;;;;;;7.70;5.00;;;21.80;99.90;;;;;;4919186;29;20470;-74
2021/07/27 00:28:52;;;;;;;6.73;5.77;;;21.80;99.90;;;;;;4919044;29;20461;-74
2021/07/27 00:31:20;;;;;;;6.80;6.10;;;21.70;99.90;;;;;;4919019;29;20465;-73
2021/07/27 00:33:49;;;;;;;7.10;6.40;;;21.70;99.90;;;;;;4918953;29;20489;-74
2021/07/27 00:36:17;;;;;;;7.10;5.73;;;21.70;99.90;;;;;;4919315;29;20476;-73
2021/07/27 00:38:44;;;;;;;7.67;5.53;;;21.70;99.90;;;;;;4918929;29;20998;-73
2021/07/27 00:41:12;;;;;;;8.93;6.07;;;21.60;99.90;;;;;;4919043;29;20460;-74
2021/07/27 00:43:39;;;;;;;6.10;5.60;;;21.70;99.90;;;;;;4918776;29;20469;-73
2021/07/27 00:46:06;;;;;;;6.17;5.57;;;21.70;99.90;;;;;;4918859;29;20477;-73
2021/07/27 00:48:32;;;;;;;6.30;5.80;;;21.70;99.90;;;;;;4918841;29;20789;-74
2021/07/27 00:51:02;;;;;;;6.87;6.10;;;21.70;99.90;;;;;;4919085;29;20465;-73
2021/07/27 00:53:28;;;;;;;5.90;5.40;;;21.70;99.90;;;;;;4918765;29;20805;-74
2021/07/27 00:55:55;;;;;;;5.83;5.30;;;21.70;99.90;;;;;;4918615;29;20838;-74
2021/07/27 00:58:26;;;;;;;6.60;6.00;;;21.70;99.90;;;;;;4918395;29;20858;-73
2021/07/27 01:00:52;;;;;;;8.63;5.80;;;21.70;99.90;;;;;;4918782;29;20851;-74
2021/07/27 01:03:19;;;;;;;6.50;5.90;;;21.70;99.90;;;;;;4918794;29;20461;-73
2021/07/27 01:05:46;;;;;;;6.77;6.17;;;21.70;99.90;;;;;;4918409;29;20462;-73
2021/07/27 01:08:14;;;;;;;5.90;5.40;;;21.70;99.90;;;;;;4918626;29;20802;-74
2021/07/27 01:10:41;;;;;;;6.37;5.77;;;21.60;99.90;;;;;;4918504;29;20466;-73
2021/07/27 01:13:08;;;;;;;6.97;6.30;;;21.50;99.90;;;;;;4918103;29;20583;-73
2021/07/27 01:15:36;;;;;;;6.87;6.20;;;21.60;99.90;;;;;;4918496;29;20475;-73
2021/07/27 01:18:09;;;;;;;6.60;5.93;;;21.50;99.90;;;;;;4918708;29;20504;-73
2021/07/27 01:20:48;;;;;;;6.90;6.20;;;21.50;99.90;;;;;;4918220;29;20887;-73
2021/07/27 01:39:47;;;;;;;8.47;6.40;;;21.30;99.90;;;;;;4918592;29;20545;-73
2021/07/27 01:42:14;;;;;;;7.40;6.60;;;21.30;99.90;;;;;;4918401;29;20469;-73
2021/07/27 01:44:45;;;;;;;7.20;6.50;;;21.40;99.90;;;;;;4918393;29;20487;-73
2021/07/27 01:47:14;;;;;;;10.10;6.47;;;21.30;99.90;;;;;;4918491;29;20527;-74
2021/07/27 01:49:42;;;;;;;8.20;7.40;;;21.40;99.90;;;;;;4919449;29;20457;-74
2021/07/27 01:52:13;;;;;;;7.10;6.40;;;21.40;99.90;;;;;;4921550;29;20930;-74
2021/07/27 01:55:07;;;;;;;8.83;6.67;;;21.40;99.90;;;;;;4921852;29;20853;-74
2021/07/27 01:57:35;;;;;;;7.20;6.50;;;21.40;99.90;;;;;;4921490;29;20516;-74
2021/07/27 02:00:12;;;;;;;6.43;5.83;;;21.40;99.90;;;;;;4921838;29;20992;-74
2021/07/27 02:02:39;;;;;;;8.80;6.20;;;21.40;99.90;;;;;;4921937;29;20438;-73
2021/07/27 02:05:08;;;;;;;12.50;7.20;;;21.50;99.90;;;;;;4922002;29;20453;-73
2021/07/27 02:07:39;;;;;;;6.47;5.83;;;21.50;99.90;;;;;;4922162;29;20457;-74
2021/07/27 02:10:12;;;;;;;8.67;7.03;;;21.50;99.90;;;;;;4921708;29;20452;-74
2021/07/27 02:12:49;;;;;;;6.77;5.90;;;21.50;99.90;;;;;;4921707;29;20485;-75
2021/07/27 02:15:17;;;;;;;7.30;6.40;;;21.40;99.90;;;;;;4921949;29;20445;-75
2021/07/27 02:17:44;;;;;;;8.37;6.60;;;21.40;99.90;;;;;;4922701;29;20945;-75
2021/07/27 02:20:12;;;;;;;8.50;6.63;;;21.40;99.90;;;;;;4928705;29;20476;-75
2021/07/27 02:22:40;;;;;;;8.43;6.07;;;21.40;99.90;;;;;;4929764;29;20465;-75
2021/07/27 02:25:10;;;;;;;8.27;6.90;;;21.40;99.90;;;;;;4931572;29;20493;-76
2021/07/27 02:27:40;;;;;;;7.50;6.80;;;21.40;99.90;;;;;;4934765;29;20789;-76
2021/07/27 02:30:08;;;;;;;7.37;6.50;;;21.40;99.90;;;;;;4934215;29;20457;-75
2021/07/27 02:32:36;;;;;;;7.57;6.87;;;21.40;99.90;;;;;;4933418;29;20463;-76
2021/07/27 02:35:09;;;;;;;7.20;6.47;;;21.30;99.90;;;;;;4929424;29;20458;-75
2021/07/27 02:37:37;;;;;;;9.73;7.20;;;21.30;99.90;;;;;;4935464;29;20473;-75
2021/07/27 02:40:05;;;;;;;11.60;6.80;;;21.30;99.90;;;;;;4935051;29;20564;-75
2021/07/27 02:42:33;;;;;;;6.63;6.03;;;21.30;99.90;;;;;;4930267;29;20462;-75
2021/07/27 02:45:00;;;;;;;6.90;6.30;;;21.30;99.90;;;;;;4927510;29;20465;-74
2021/07/27 02:47:26;;;;;;;7.80;6.90;;;21.30;99.90;;;;;;4922225;29;20473;-75
2021/07/27 02:49:53;;;;;;;6.70;6.00;;;21.30;99.90;;;;;;4921816;29;20450;-74
2021/07/27 02:52:20;;;;;;;9.73;7.60;;;21.30;99.90;;;;;;4921621;29;20918;-76
2021/07/27 02:54:47;;;;;;;7.60;6.90;;;21.30;99.90;;;;;;4921318;29;20480;-76
2021/07/27 02:57:13;;;;;;;6.80;6.10;;;21.40;99.90;;;;;;4921527;29;20473;-73
2021/07/27 02:59:41;;;;;;;6.73;6.13;;;21.30;99.90;;;;;;4920802;29;20485;-74
2021/07/27 03:02:11;;;;;;;9.07;6.93;;;21.30;99.90;;;;;;4920155;29;20469;-74
2021/07/27 03:04:38;;;;;;;8.07;7.37;;;21.30;99.90;;;;;;4920414;29;20561;-75
2021/07/27 03:07:06;;;;;;;8.27;7.40;;;21.20;99.90;;;;;;4922189;29;20915;-75
2021/07/27 03:09:35;;;;;;;8.20;6.50;;;21.20;99.90;;;;;;4921558;29;20461;-75
2021/07/27 03:12:04;;;;;;;6.90;6.13;;;21.10;99.90;;;;;;4920118;29;20489;-75
2021/07/27 03:14:30;;;;;;;9.07;6.60;;;21.20;99.90;;;;;;4920436;29;20836;-76
2021/07/27 03:16:59;;;;;;;7.60;6.90;;;21.10;99.90;;;;;;4920352;29;20457;-75
2021/07/27 03:19:25;;;;;;;7.20;6.50;;;21.20;99.90;;;;;;4920377;29;20986;-74
2021/07/27 03:21:52;;;;;;;7.47;6.70;;;21.20;99.90;;;;;;4920233;29;20476;-75
2021/07/27 03:24:19;;;;;;;9.70;6.30;;;21.10;99.90;;;;;;4920222;29;20838;-75
2021/07/27 03:26:45;;;;;;;9.43;6.67;;;21.10;99.90;;;;;;4920122;29;20492;-75
2021/07/27 03:29:15;;;;;;;7.43;6.70;;;21.10;99.90;;;;;;4920160;29;20476;-75
2021/07/27 03:31:41;;;;;;;7.60;6.90;;;21.10;99.90;;;;;;4919739;29;20525;-76
2021/07/27 03:34:10;;;;;;;7.30;6.20;;;21.10;99.90;;;;;;4919609;29;20465;-75
2021/07/27 03:36:36;;;;;;;7.57;6.87;;;21.10;99.90;;;;;;4919764;29;20473;-75
2021/07/27 03:39:03;;;;;;;7.03;6.33;;;21.00;99.90;;;;;;4919593;29;21005;-75
2021/07/27 03:41:30;;;;;;;7.33;6.40;;;21.00;99.90;;;;;;4919679;29;20541;-74
2021/07/27 03:43:58;;;;;;;7.73;6.97;;;21.00;99.90;;;;;;4919421;29;20461;-74
2021/07/27 03:46:27;;;;;;;6.83;6.23;;;21.00;99.90;;;;;;4919492;29;20998;-74
2021/07/27 03:48:54;;;;;;;6.90;6.20;;;21.00;99.90;;;;;;4919674;29;20548;-74
2021/07/27 03:51:22;;;;;;;7.80;6.23;;;21.00;99.90;;;;;;4919398;29;20793;-76
2021/07/27 03:53:48;;;;;;;6.47;5.87;;;21.00;99.90;;;;;;4919883;29;20466;-74
2021/07/27 03:56:15;;;;;;;7.47;6.67;;;21.00;99.90;;;;;;4919763;29;20846;-74
2021/07/27 03:58:43;;;;;;;8.17;6.90;;;21.00;99.90;;;;;;4919686;29;20485;-75
2021/07/27 04:01:11;;;;;;;7.23;6.57;;;21.00;99.90;;;;;;4919601;29;20528;-75
2021/07/27 04:03:37;;;;;;;7.43;6.73;;;21.00;99.90;;;;;;4919582;29;20465;-74
2021/07/27 04:06:05;;;;;;;8.43;6.93;;;21.00;99.90;;;;;;4919384;29;20477;-75
2021/07/27 04:08:33;;;;;;;6.37;5.77;;;21.10;99.90;;;;;;4919066;29;20513;-74
2021/07/27 04:11:03;;;;;;;8.63;6.63;;;21.10;99.90;;;;;;4919494;29;20505;-74
2021/07/27 04:13:32;;;;;;;7.43;6.70;;;21.00;99.90;;;;;;4918724;29;20488;-75
2021/07/27 04:16:00;;;;;;;7.17;6.47;;;21.00;99.90;;;;;;4919182;29;20461;-75
2021/07/27 04:18:27;;;;;;;7.67;6.50;;;21.00;99.90;;;;;;4919177;29;20494;-74
2021/07/27 04:20:55;;;;;;;9.00;6.73;;;21.00;99.90;;;;;;4919013;29;20953;-73
2021/07/27 04:23:22;;;;;;;7.20;6.60;;;21.10;99.90;;;;;;4919197;29;20469;-74
2021/07/27 04:25:50;;;;;;;6.33;5.73;;;21.10;99.90;;;;;;4918942;29;20465;-75
2021/07/27 04:28:17;;;;;;;8.03;6.37;;;21.10;99.90;;;;;;4919083;29;20465;-75
2021/07/27 04:30:43;;;;;;;10.77;7.33;;;21.10;99.90;;;;;;4919024;29;20461;-75
2021/07/27 04:33:10;;;;;;;6.70;6.10;;;21.10;99.90;;;;;;4919129;29;20465;-74
2021/07/27 04:35:38;;;;;;;6.77;6.17;;;21.10;99.90;;;;;;4918741;29;20466;-75
2021/07/27 04:38:05;;;;;;;10.50;6.47;;;21.10;99.90;;;;;;4919538;29;20922;-75
2021/07/27 04:40:31;;;;;;;9.13;5.97;;;21.20;99.90;;;;;;4919493;29;20572;-74
2021/07/27 04:43:02;;;;;;;8.63;6.67;;;21.20;99.90;;;;;;4918856;29;20472;-74
2021/07/27 04:45:29;;;;;;;7.20;6.50;;;21.20;99.90;;;;;;4918922;29;20445;-75
2021/07/27 04:47:56;;;;;;;6.57;5.97;;;21.20;99.90;;;;;;4918916;29;20546;-75
2021/07/27 04:50:22;;;;;;;6.70;6.00;;;21.20;99.90;;;;;;4919396;29;20465;-74
2021/07/27 04:52:52;;;;;;;7.53;6.83;;;21.10;99.90;;;;;;4918388;29;20480;-74
2021/07/27 04:55:19;;;;;;;7.97;6.10;;;21.20;99.90;;;;;;4918884;29;20476;-75
2021/07/27 04:57:46;;;;;;;8.33;7.40;;;21.20;99.90;;;;;;4918819;29;20465;-74
2021/07/27 05:00:20;;;;;;;6.40;5.80;;;21.20;99.90;;;;;;4918452;29;20977;-74
2021/07/27 05:02:47;;;;;;;6.73;6.03;;;21.30;99.90;;;;;;4918389;29;20450;-75
2021/07/27 05:05:14;;;;;;;7.47;6.20;;;21.30;99.90;;;;;;4918618;29;20472;-74
2021/07/27 05:07:41;;;;;;;6.40;5.80;;;21.30;99.90;;;;;;4918790;29;20466;-75
2021/07/27 05:10:11;;;;;;;6.73;6.13;;;21.40;99.90;;;;;;4920008;29;20468;-74
2021/07/27 05:12:40;;;;;;;6.70;6.07;;;21.40;99.90;;;;;;4918684;29;20822;-74
2021/07/27 05:15:07;;;;;;;7.63;6.80;;;21.40;99.90;;;;;;4918881;29;20461;-74
2021/07/27 05:17:35;;;;;;;6.70;5.77;;;21.40;99.90;;;;;;4918662;29;20465;-74
2021/07/27 05:20:03;;;;;;;13.73;6.73;;;21.50;99.90;;;;;;4918593;29;20500;-75
2021/07/27 05:22:30;;;;;;;7.23;6.53;;;21.50;99.90;;;;;;4918319;29;20469;-74
2021/07/27 05:24:57;;;;;;;7.97;5.87;;;21.60;99.90;;;;;;4920470;29;20465;-75
2021/07/27 05:27:25;;;;;;;7.40;5.80;;;21.60;99.90;;;;;;4921880;29;20469;-74
2021/07/27 05:29:53;;;;;;;9.30;6.50;;;21.60;99.90;;;;;;4922671;29;20465;-75
2021/07/27 05:32:22;;;;;;;6.53;5.80;;;21.70;99.90;;;;;;4921913;29;20469;-74
2021/07/27 05:34:50;;;;;;;10.53;5.90;;;21.80;99.90;;;;;;4921729;29;20556;-73
2021/07/27 05:37:17;;;;;;;6.07;5.47;;;21.90;99.90;;;;;;4922031;29;20476;-73
2021/07/27 05:39:44;;;;;;;9.63;6.37;;;21.90;99.90;;;;;;4921773;29;20492;-74
2021/07/27 05:42:11;;;;;;;5.90;5.20;;;22.00;99.90;;;;;;4922157;29;20469;-74
2021/07/27 05:44:40;;;;;;;7.57;5.50;;;22.00;99.90;;;;;;4922037;29;20834;-74
2021/07/27 05:47:07;;;;;;;6.53;5.57;;;22.10;99.90;;;;;;4921556;29;20472;-73
2021/07/27 05:49:35;;;;;;;7.10;6.10;;;22.20;99.90;;;;;;4922683;29;20468;-74
2021/07/27 05:52:04;;;;;;;7.50;5.90;;;22.20;99.90;;;;;;4922166;29;20473;-74
2021/07/27 05:54:31;;;;;;;9.60;6.10;;;22.30;99.90;;;;;;4921475;29;20473;-74
2021/07/27 05:56:58;;;;;;;7.77;6.00;;;22.30;99.90;;;;;;4922124;29;20462;-72
2021/07/27 05:59:25;;;;;;;7.30;5.27;;;22.40;99.90;;;;;;4921563;29;20978;-74
2021/07/27 06:01:52;;;;;;;8.07;6.33;;;22.40;99.90;;;;;;4922225;29;20472;-72
2021/07/27 06:04:20;;;;;;;7.33;5.60;;;22.50;99.90;;;;;;4921484;29;20785;-74
2021/07/27 06:06:46;;;;;;;9.77;5.50;;;22.50;99.90;;;;;;4921401;29;20796;-74
2021/07/27 06:09:14;;;;;;;7.47;5.70;;;22.60;99.90;;;;;;4921662;29;20488;-74
2021/07/27 06:11:44;;;;;;;8.90;5.10;;;22.60;99.90;;;;;;4921066;29;20883;-73
2021/07/27 06:14:11;;;;;;;9.67;4.90;;;22.70;99.90;;;;;;4921405;29;20820;-73
2021/07/27 06:16:40;;;;;;;8.63;5.97;;;22.70;99.90;;;;;;4920919;29;20466;-74
2021/07/27 06:19:08;;;;;;;5.57;5.00;;;22.70;99.90;;;;;;4920841;29;20469;-74
2021/07/27 06:21:40;;;;;;;7.83;4.80;;;22.70;99.90;;;;;;4921083;29;20867;-76
2021/07/27 06:24:07;;;;;;;7.33;5.10;;;22.70;99.90;;;;;;4920836;29;20453;-75
2021/07/27 06:26:35;;;;;;;9.90;4.90;;;22.70;99.90;;;;;;4921240;29;20787;-75
2021/07/27 06:29:03;;;;;;;5.13;4.63;;;22.70;99.90;;;;;;4922512;29;20465;-74
2021/07/27 06:31:30;;;;;;;5.53;4.60;;;22.80;99.90;;;;;;4920916;29;20627;-74
2021/07/27 06:33:57;;;;;;;10.50;5.03;;;22.80;99.90;;;;;;4921258;29;20468;-75
2021/07/27 06:36:24;;;;;;;4.00;3.70;;;22.90;99.90;;;;;;4921062;29;20469;-74
2021/07/27 06:38:51;;;;;;;4.30;3.90;;;23.00;99.90;;;;;;4922472;29;20473;-75
2021/07/27 06:41:17;;;;;;;4.63;4.10;;;23.00;99.90;;;;;;4921117;29;20489;-70
2021/07/27 06:43:45;;;;;;;6.33;4.50;;;23.10;99.90;;;;;;4920821;29;20465;-71
2021/07/27 06:46:12;;;;;;;5.93;4.47;;;23.10;99.90;;;;;;4920633;29;20488;-71
2021/07/27 06:48:39;;;;;;;4.30;4.00;;;23.10;99.90;;;;;;4920393;29;20469;-71
2021/07/27 06:51:10;;;;;;;5.93;3.93;;;23.10;99.90;;;;;;4921034;29;20477;-71
2021/07/27 06:53:37;;;;;;;4.27;3.53;;;23.20;99.90;;;;;;4920655;29;20461;-71
2021/07/27 06:56:07;;;;;;;4.77;3.90;;;23.20;99.90;;;;;;4920307;29;20476;-71
2021/07/27 06:58:40;;;;;;;4.00;3.67;;;23.30;99.90;;;;;;4920270;29;20461;-72
2021/07/27 07:01:10;;;;;;;5.60;3.67;;;23.30;99.90;;;;;;4921055;29;20828;-72
2021/07/27 07:03:38;;;;;;;7.23;3.73;;;23.40;99.90;;;;;;4921040;29;20517;-73
2021/07/27 07:06:05;;;;;;;5.00;3.67;;;23.50;99.90;;;;;;4920538;29;20489;-71
2021/07/27 07:08:31;;;;;;;6.27;4.50;;;23.50;99.90;;;;;;4920171;29;20473;-72
2021/07/27 07:10:59;;;;;;;6.00;3.93;;;23.60;99.90;;;;;;4919962;29;20557;-72
2021/07/27 07:13:27;;;;;;;4.50;3.43;;;23.70;99.90;;;;;;4919940;29;20489;-72
2021/07/27 07:15:57;;;;;;;6.80;4.17;;;23.70;99.90;;;;;;4920304;29;20462;-72
2021/07/27 07:18:25;;;;;;;4.90;4.40;;;23.80;99.90;;;;;;4919729;29;20930;-73
2021/07/27 07:20:53;;;;;;;6.40;2.80;;;23.80;99.90;;;;;;4919919;29;20821;-72
2021/07/27 07:23:20;;;;;;;3.87;3.30;;;23.90;99.90;;;;;;4919827;29;20465;-72
2021/07/27 07:25:47;;;;;;;3.63;3.33;;;23.90;99.90;;;;;;4919940;29;20954;-73
2021/07/27 07:28:13;;;;;;;4.70;3.47;;;23.90;99.90;;;;;;4919825;29;20457;-71
2021/07/27 07:30:40;;;;;;;5.00;3.20;;;24.00;99.90;;;;;;4920081;29;20758;-72
2021/07/27 07:33:07;;;;;;;3.80;3.10;;;24.00;99.90;;;;;;4919593;29;20476;-72
2021/07/27 07:35:36;;;;;;;4.37;3.27;;;24.00;99.90;;;;;;4920072;29;20465;-72
2021/07/27 07:38:02;;;;;;;3.30;3.00;;;24.10;99.90;;;;;;4920070;29;20457;-72
2021/07/27 07:40:29;;;;;;;6.13;3.50;;;24.10;99.90;;;;;;4919841;29;20510;-72
2021/07/27 07:42:58;;;;;;;3.60;3.20;;;24.20;99.90;;;;;;4919801;29;20961;-72
2021/07/27 07:45:25;;;;;;;7.13;3.17;;;24.30;99.90;;;;;;4919317;29;20461;-72
2021/07/27 07:47:58;;;;;;;4.00;3.30;;;24.30;99.90;;;;;;4919645;29;20792;-72
2021/07/27 07:50:28;;;;;;;3.47;2.77;;;24.40;99.90;;;;;;4919804;29;20446;-72
2021/07/27 07:53:00;;;;;;;3.70;2.90;;;24.40;99.90;;;;;;4919793;29;20453;-72
2021/07/27 07:55:27;;;;;;;4.63;3.10;;;24.50;99.90;;;;;;4919589;29;20476;-72
2021/07/27 07:57:54;;;;;;;3.43;3.13;;;24.50;99.90;;;;;;4919524;29;20457;-72
2021/07/27 08:00:25;;;;;;;3.40;3.10;;;24.50;99.90;;;;;;4919842;29;20493;-72
2021/07/27 08:02:52;;;;;;;5.80;3.47;;;24.60;99.90;;;;;;4920110;29;20540;-71
2021/07/27 08:05:19;;;;;;;3.40;2.93;;;24.60;99.90;;;;;;4918832;29;20461;-72
2021/07/27 08:07:46;;;;;;;3.53;3.23;;;24.70;99.90;;;;;;4919283;29;20469;-73
2021/07/27 08:10:15;;;;;;;3.80;3.47;;;24.70;99.90;;;;;;4919230;29;20465;-72
2021/07/27 08:12:43;;;;;;;4.10;3.80;;;24.70;99.90;;;;;;4918701;29;20498;-72
2021/07/27 08:15:11;;;;;;;7.00;3.63;;;24.70;99.90;;;;;;4918794;29;20557;-72
2021/07/27 08:17:38;;;;;;;6.00;3.67;;;24.70;99.90;;;;;;4919212;29;20532;-72
2021/07/27 08:20:09;;;;;;;4.70;4.10;;;24.70;99.90;;;;;;4919241;29;20489;-72
2021/07/27 08:22:38;;;;;;;7.73;3.90;;;24.60;99.90;;;;;;4918295;29;20521;-73
2021/07/27 08:25:06;;;;;;;3.97;3.40;;;24.70;99.90;;;;;;4918939;29;20458;-72
2021/07/27 08:27:34;;;;;;;4.13;3.73;;;24.70;99.90;;;;;;4918615;29;20466;-72
2021/07/27 08:30:01;;;;;;;5.27;3.80;;;24.70;99.90;;;;;;4918499;29;20461;-72
2021/07/27 08:32:30;;;;;;;4.83;3.73;;;24.70;99.90;;;;;;4919239;29;20457;-72
2021/07/27 08:34:57;;;;;;;4.27;3.60;;;24.70;99.90;;;;;;4919178;29;20469;-72
2021/07/27 08:37:24;;;;;;;4.87;3.70;;;24.80;99.90;;;;;;4918919;29;20927;-72
2021/07/27 08:39:50;;;;;;;3.87;3.57;;;24.80;99.90;;;;;;4918808;29;20461;-72
2021/07/27 08:42:19;;;;;;;3.90;3.60;;;24.90;99.90;;;;;;4918966;29;20881;-71
2021/07/27 08:44:48;;;;;;;4.87;3.10;;;25.00;99.90;;;;;;4918875;29;20811;-72
2021/07/27 08:47:15;;;;;;;5.53;2.70;;;25.10;99.90;;;;;;4918570;29;20934;-72
2021/07/27 08:49:43;;;;;;;4.80;3.30;;;25.10;99.90;;;;;;4918877;29;20468;-71
2021/07/27 08:52:10;;;;;;;3.53;3.00;;;25.20;99.90;;;;;;4918601;29;20457;-72
2021/07/27 08:54:39;;;;;;;2.97;2.77;;;25.30;99.90;;;;;;4918424;29;20922;-71
2021/07/27 08:57:14;;;;;;;3.30;2.37;;;25.40;99.90;;;;;;4918795;29;20529;-71
2021/07/27 08:59:41;;;;;;;3.37;3.07;;;25.40;99.90;;;;;;4921605;29;20516;-72
2021/07/27 09:02:09;;;;;;;2.70;2.50;;;25.40;99.90;;;;;;4922666;29;20809;-71
2021/07/27 09:04:36;;;;;;;3.30;2.80;;;25.50;99.90;;;;;;4922382;29;20848;-71
2021/07/27 09:07:05;;;;;;;3.23;2.53;;;25.60;99.90;;;;;;4922856;29;20469;-72
2021/07/27 09:09:33;;;;;;;3.03;2.83;;;25.70;99.90;;;;;;4922574;29;20472;-72
2021/07/27 09:12:01;;;;;;;3.40;2.70;;;25.80;99.90;;;;;;4922243;29;20481;-72
2021/07/27 09:14:29;;;;;;;2.67;2.47;;;25.80;99.90;;;;;;4922209;29;20491;-73
2021/07/27 09:16:57;;;;;;;3.00;2.50;;;25.80;99.90;;;;;;4922583;29;20802;-73
2021/07/27 09:19:38;;;;;;;3.30;3.00;;;25.80;99.90;;;;;;4922324;29;20477;-72
2021/07/27 09:22:05;;;;;;;3.23;2.93;;;25.90;99.90;;;;;;4922192;29;20776;-73
2021/07/27 09:24:32;;;;;;;3.30;3.00;;;25.90;99.90;;;;;;4922802;29;20925;-72
2021/07/27 09:27:01;;;;;;;3.40;2.50;;;26.00;99.90;;;;;;4922077;29;20469;-71
2021/07/27 09:29:29;;;;;;;3.57;2.60;;;26.00;99.90;;;;;;4921862;29;20468;-71
2021/07/27 09:31:57;;;;;;;3.17;2.60;;;26.00;99.90;;;;;;4922232;29;20469;-72
2021/07/27 09:34:25;;;;;;;5.17;2.87;;;26.10;99.90;;;;;;4921878;29;20543;-71
2021/07/27 09:37:04;;;;;;;5.03;2.47;;;26.10;99.90;;;;;;4921836;29;20497;-72
2021/07/27 09:39:31;;;;;;;4.63;2.10;;;26.20;99.90;;;;;;4921493;29;20449;-71
2021/07/27 09:41:59;;;;;;;2.93;2.60;;;26.20;99.90;;;;;;4921828;29;20818;-72
2021/07/27 09:44:31;;;;;;;4.43;2.60;;;26.10;99.90;;;;;;4922487;29;20472;-72
2021/07/27 09:46:59;;;;;;;4.03;2.67;;;26.20;99.90;;;;;;4921845;29;20783;-73
2021/07/27 09:49:26;;;;;;;4.13;3.07;;;26.20;99.90;;;;;;4921452;29;20465;-73
2021/07/27 09:51:53;;;;;;;3.37;3.07;;;26.20;99.90;;;;;;4921810;29;20481;-72
2021/07/27 09:54:23;;;;;;;4.73;3.40;;;26.30;99.90;;;;;;4921718;29;20477;-72
2021/07/27 09:56:50;;;;;;;6.13;3.30;;;26.40;99.90;;;;;;4921534;29;20457;-72
2021/07/27 09:59:17;;;;;;;3.90;2.77;;;26.50;99.90;;;;;;4921545;29;20549;-72
2021/07/27 10:01:51;;;;;;;6.73;3.00;;;26.60;99.90;;;;;;4921231;29;20480;-72
2021/07/27 10:04:23;;;;;;;3.47;3.17;;;26.60;99.90;;;;;;4921054;29;20501;-72
2021/07/27 10:06:50;;;;;;;5.00;3.90;;;26.70;99.90;;;;;;4921248;29;20445;-72
2021/07/27 10:09:25;;;;;;;3.63;3.33;;;26.70;99.90;;;;;;4921501;29;20473;-72
2021/07/27 10:11:52;;;;;;;3.50;2.93;;;26.70;99.90;;;;;;4920409;29;20888;-71
2021/07/27 10:14:20;;;;;;;5.20;3.53;;;26.60;99.90;;;;;;4921735;29;20446;-71
2021/07/27 10:16:48;;;;;;;4.30;3.27;;;26.50;99.90;;;;;;4922239;29;20461;-73
2021/07/27 10:19:20;;;;;;;6.43;3.60;;;26.40;99.90;;;;;;4921877;29;20508;-72
2021/07/27 10:21:48;;;;;;;3.30;3.00;;;26.20;99.90;;;;;;4921417;29;20484;-71
2021/07/27 10:24:19;;;;;;;4.47;3.73;;;26.00;99.90;;;;;;4921966;29;20461;-72
2021/07/27 10:26:48;;;;;;;5.17;3.27;;;26.00;99.90;;;;;;4921091;29;20777;-72
2021/07/27 10:29:15;;;;;;;4.50;3.40;;;25.80;99.90;;;;;;4920755;29;20461;-72
2021/07/27 10:31:43;;;;;;;4.97;3.83;;;25.70;99.90;;;;;;4920763;29;20462;-72
2021/07/27 10:34:11;;;;;;;4.20;3.83;;;25.80;99.90;;;;;;4920789;29;20867;-72
2021/07/27 10:36:40;;;;;;;4.17;3.40;;;25.90;99.90;;;;;;4920834;29;20473;-72
2021/07/27 10:39:17;;;;;;;4.30;3.60;;;26.10;99.90;;;;;;4920857;29;20465;-72
2021/07/27 10:41:46;;;;;;;3.93;3.40;;;26.20;99.90;;;;;;4921477;29;20476;-72
2021/07/27 10:44:16;;;;;;;4.07;3.67;;;26.30;99.90;;;;;;4921209;29;20474;-72
2021/07/27 10:46:45;;;;;;;3.63;3.20;;;26.40;99.90;;;;;;4921198;29;20824;-73
2021/07/27 10:49:16;;;;;;;3.57;3.27;;;26.40;99.90;;;;;;4920519;29;20962;-72
2021/07/27 10:51:45;;;;;;;4.10;3.70;;;26.50;99.90;;;;;;4920539;29;20465;-72
2021/07/27 10:54:14;;;;;;;4.13;3.60;;;26.60;99.90;;;;;;4920002;29;20482;-73
2021/07/27 10:56:46;;;;;;;3.40;3.10;;;26.60;99.90;;;;;;4920594;29;20469;-73
2021/07/27 10:59:19;;;;;;;4.13;3.33;;;26.60;99.90;;;;;;4920138;29;20510;-73
2021/07/27 11:01:48;;;;;;;4.83;3.63;;;26.60;99.90;;;;;;4920651;29;20894;-74
2021/07/27 11:04:17;;;;;;;3.70;3.40;;;26.70;99.90;;;;;;4920068;29;20532;-74
2021/07/27 11:06:44;;;;;;;3.50;3.00;;;26.80;99.90;;;;;;4920234;29;20861;-74
2021/07/27 11:09:12;;;;;;;4.50;2.90;;;26.90;99.90;;;;;;4921198;29;20528;-77
2021/07/27 11:11:47;;;;;;;2.90;2.70;;;26.80;99.90;;;;;;4920400;29;20489;-75
2021/07/27 11:14:22;;;;;;;3.27;2.97;;;26.90;99.90;;;;;;4920406;29;20449;-78
2021/07/27 11:16:49;;;;;;;3.17;2.80;;;26.80;99.90;;;;;;4921119;29;20836;-76
2021/07/27 11:19:31;;;;;;;5.73;3.10;;;26.70;99.90;;;;;;4921852;29;20559;-74
2021/07/27 11:21:59;;;;;;;5.10;3.33;;;26.60;99.90;;;;;;4921509;29;20465;-75
2021/07/27 11:24:27;;;;;;;5.00;2.93;;;26.60;99.90;;;;;;4921847;29;20493;-76
2021/07/27 11:26:56;;;;;;;3.00;2.70;;;26.60;99.90;;;;;;4921286;29;20472;-78
2021/07/27 11:29:24;;;;;;;3.30;2.77;;;26.60;99.90;;;;;;4920524;29;20525;-75
2021/07/27 11:31:52;;;;;;;3.03;2.73;;;26.60;99.90;;;;;;4920705;29;20472;-77
2021/07/27 11:34:27;;;;;;;2.80;2.53;;;26.60;99.90;;;;;;4920748;29;20469;-76
2021/07/27 11:36:54;;;;;;;3.10;2.87;;;26.60;99.90;;;;;;4922844;29;20445;-78
2021/07/27 11:39:21;;;;;;;3.17;2.87;;;26.70;99.90;;;;;;4921428;29;20470;-77
2021/07/27 11:41:59;;;;;;;3.50;2.93;;;27.00;99.90;;;;;;4923498;29;20800;-75
2021/07/27 11:44:27;;;;;;;3.63;2.80;;;27.20;99.90;;;;;;4920178;29;20591;-74
2021/07/27 11:46:54;;;;;;;4.83;2.80;;;27.30;99.90;;;;;;4919871;29;20470;-76
2021/07/27 11:49:21;;;;;;;2.67;2.47;;;27.40;99.90;;;;;;4919561;29;20457;-77
2021/07/27 11:51:48;;;;;;;8.50;2.80;;;27.70;99.90;;;;;;4920555;29;20789;-75
2021/07/27 11:54:33;;;;;;;3.17;2.87;;;27.90;99.90;;;;;;4919649;29;20465;-75
2021/07/27 11:57:00;;;;;;;4.50;2.47;;;27.90;99.90;;;;;;4920174;29;20476;-74
2021/07/27 11:59:29;;;;;;;4.80;2.33;;;28.10;99.90;;;;;;4920832;29;20453;-74
2021/07/27 12:01:57;;;;;;;3.47;2.40;;;28.40;99.90;;;;;;4919836;29;20485;-76
2021/07/27 12:04:23;;;;;;;3.60;2.47;;;28.90;99.90;;;;;;4921384;29;20466;-76
2021/07/27 12:06:52;;;;;;;3.83;2.63;;;29.30;99.90;;;;;;4919560;29;20461;-74
2021/07/27 12:09:22;;;;;;;3.30;2.40;;;29.70;99.90;;;;;;4919655;29;20465;-77
2021/07/27 12:11:49;;;;;;;10.90;2.80;;;30.20;99.90;;;;;;4919366;29;20496;-76
2021/07/27 12:14:15;;;;;;;4.73;3.07;;;30.60;99.90;;;;;;4919284;29;20445;-75
2021/07/27 12:16:44;;;;;;;2.73;2.53;;;31.00;99.90;;;;;;4919306;29;20476;-76
2021/07/27 12:19:10;;;;;;;4.43;2.07;;;31.30;99.90;;;;;;4919256;29;20465;-75
2021/07/27 12:21:39;;;;;;;2.43;2.20;;;31.50;99.90;;;;;;4919730;29;20824;-75
2021/07/27 12:24:09;;;;;;;2.20;2.00;;;31.80;99.90;;;;;;4919969;29;20475;-73
2021/07/27 12:26:37;;;;;;;2.40;2.20;;;31.90;99.90;;;;;;4919602;29;20449;-76
2021/07/27 12:29:05;;;;;;;3.70;2.60;;;31.90;99.90;;;;;;4918942;29;20470;-76
2021/07/27 12:31:31;;;;;;;2.63;2.43;;;31.50;99.90;;;;;;4919605;29;20465;-76
2021/07/27 12:34:00;;;;;;;3.10;2.80;;;31.00;99.90;;;;;;4919397;29;20497;-75
2021/07/27 12:36:26;;;;;;;2.70;2.50;;;30.30;99.90;;;;;;4918750;29;20461;-78
2021/07/27 12:38:53;;;;;;;2.63;2.43;;;29.70;99.90;;;;;;4919200;29;20470;-76
2021/07/27 12:41:20;;;;;;;2.70;2.50;;;29.20;99.90;;;;;;4918483;29;20493;-76
2021/07/27 12:43:46;;;;;;;2.70;2.50;;;28.80;99.90;;;;;;4918987;29;20965;-76
2021/07/27 12:46:13;;;;;;;3.70;2.30;;;28.40;99.90;;;;;;4919256;29;20469;-76
2021/07/27 12:48:40;;;;;;;4.93;3.10;;;28.20;99.90;;;;;;4919295;29;20465;-77
2021/07/27 12:51:08;;;;;;;4.80;2.27;;;28.10;99.90;;;;;;4919297;29;20476;-76
2021/07/27 12:53:35;;;;;;;3.40;2.30;;;28.00;99.90;;;;;;4918776;29;20529;-76
2021/07/27 12:56:02;;;;;;;4.67;2.80;;;28.20;99.90;;;;;;4918858;29;20469;-76
2021/07/27 12:58:28;;;;;;;2.80;2.60;;;28.70;99.90;;;;;;4919135;29;20462;-75
2021/07/27 13:00:55;;;;;;;3.60;2.63;;;29.40;99.90;;;;;;4919737;29;20461;-76
2021/07/27 13:03:22;;;;;;;4.93;1.90;;;30.20;99.90;;;;;;4918580;29;20504;-76
2021/07/27 13:05:48;;;;;;;2.73;2.53;;;31.00;99.90;;;;;;4918048;29;20461;-76
2021/07/27 13:08:16;;;;;;;2.60;2.40;;;31.50;99.90;;;;;;4918736;29;20465;-76